sensor_id;sensor_type;location;lat;lon;timestamp;pressure;altitude;pressure_sealevel;temperature
62180;BMP280;48172;53.374;10.722;2022-11-20T00:01:05;101219.97;;;19.28
62180;BMP280;48172;53.374;10.722;2022-11-20T00:03:32;101221.16;;;19.27
62180;BMP280;48172;53.374;10.722;2022-11-20T00:06:03;101223.19;;;19.23
62180;BMP280;48172;53.374;10.722;2022-11-20T00:08:30;101230.22;;;19.21
62180;BMP280;48172;53.374;10.722;2022-11-20T00:10:56;101219.50;;;19.17
62180;BMP280;48172;53.374;10.722;2022-11-20T00:13:26;101221.44;;;19.17
62180;BMP280;48172;53.374;10.722;2022-11-20T00:15:57;101224.25;;;19.13
62180;BMP280;48172;53.374;10.722;2022-11-20T00:18:25;101222.41;;;19.10
62180;BMP280;48172;53.374;10.722;2022-11-20T00:20:52;101214.72;;;19.09
62180;BMP280;48172;53.374;10.722;2022-11-20T00:23:19;101224.44;;;19.06
62180;BMP280;48172;53.374;10.722;2022-11-20T00:25:45;101224.13;;;19.04
62180;BMP280;48172;53.374;10.722;2022-11-20T00:28:12;101221.50;;;19.01
62180;BMP280;48172;53.374;10.722;2022-11-20T00:30:38;101229.63;;;19.01
62180;BMP280;48172;53.374;10.722;2022-11-20T00:33:05;101223.88;;;18.98
62180;BMP280;48172;53.374;10.722;2022-11-20T00:35:31;101231.34;;;18.94
62180;BMP280;48172;53.374;10.722;2022-11-20T00:37:58;101236.44;;;18.92
62180;BMP280;48172;53.374;10.722;2022-11-20T00:40:24;101229.50;;;18.91
62180;BMP280;48172;53.374;10.722;2022-11-20T00:42:51;101221.81;;;18.90
62180;BMP280;48172;53.374;10.722;2022-11-20T00:45:18;101222.22;;;18.88
62180;BMP280;48172;53.374;10.722;2022-11-20T00:47:44;101222.66;;;18.87
62180;BMP280;48172;53.374;10.722;2022-11-20T00:50:11;101218.84;;;18.84
62180;BMP280;48172;53.374;10.722;2022-11-20T00:52:37;101216.16;;;18.84
62180;BMP280;48172;53.374;10.722;2022-11-20T00:55:04;101215.06;;;18.82
62180;BMP280;48172;53.374;10.722;2022-11-20T00:57:31;101215.06;;;18.82
62180;BMP280;48172;53.374;10.722;2022-11-20T00:59:57;101216.66;;;18.79
62180;BMP280;48172;53.374;10.722;2022-11-20T01:02:24;101230.63;;;18.78
62180;BMP280;48172;53.374;10.722;2022-11-20T01:04:51;101231.81;;;18.77
62180;BMP280;48172;53.374;10.722;2022-11-20T01:07:17;101217.19;;;18.74
62180;BMP280;48172;53.374;10.722;2022-11-20T01:09:44;101217.63;;;18.73
62180;BMP280;48172;53.374;10.722;2022-11-20T01:12:10;101220.00;;;18.71
62180;BMP280;48172;53.374;10.722;2022-11-20T01:14:37;101220.84;;;18.67
62180;BMP280;48172;53.374;10.722;2022-11-20T01:17:03;101214.66;;;18.67
62180;BMP280;48172;53.374;10.722;2022-11-20T01:19:30;101217.78;;;18.65
62180;BMP280;48172;53.374;10.722;2022-11-20T01:21:57;101213.56;;;18.64
62180;BMP280;48172;53.374;10.722;2022-11-20T01:24:24;101210.53;;;18.62
62180;BMP280;48172;53.374;10.722;2022-11-20T01:26:51;101215.19;;;18.62
62180;BMP280;48172;53.374;10.722;2022-11-20T01:29:23;101213.66;;;18.61
62180;BMP280;48172;53.374;10.722;2022-11-20T01:31:51;101203.69;;;18.58
62180;BMP280;48172;53.374;10.722;2022-11-20T01:34:20;101212.22;;;18.56
62180;BMP280;48172;53.374;10.722;2022-11-20T01:36:47;101212.69;;;18.55
62180;BMP280;48172;53.374;10.722;2022-11-20T01:39:16;101206.53;;;18.54
62180;BMP280;48172;53.374;10.722;2022-11-20T01:41:44;101201.50;;;18.53
62180;BMP280;48172;53.374;10.722;2022-11-20T01:44:57;101205.41;;;18.52
62180;BMP280;48172;53.374;10.722;2022-11-20T01:47:34;101197.72;;;18.50
62180;BMP280;48172;53.374;10.722;2022-11-20T01:52:41;101184.72;;;18.45
62180;BMP280;48172;53.374;10.722;2022-11-20T01:55:16;101187.81;;;18.44
62180;BMP280;48172;53.374;10.722;2022-11-20T01:57:44;101178.63;;;18.41
62180;BMP280;48172;53.374;10.722;2022-11-20T02:00:14;101190.19;;;18.42
62180;BMP280;48172;53.374;10.722;2022-11-20T02:02:46;101189.53;;;18.38
62180;BMP280;48172;53.374;10.722;2022-11-20T02:05:35;101184.13;;;18.38
62180;BMP280;48172;53.374;10.722;2022-11-20T02:08:04;101184.97;;;18.34
62180;BMP280;48172;53.374;10.722;2022-11-20T02:10:32;101178.78;;;18.34
62180;BMP280;48172;53.374;10.722;2022-11-20T02:12:58;101175.31;;;18.33
62180;BMP280;48172;53.374;10.722;2022-11-20T02:15:44;101176.19;;;18.30
62180;BMP280;48172;53.374;10.722;2022-11-20T02:18:11;101169.66;;;18.28
62180;BMP280;48172;53.374;10.722;2022-11-20T02:20:42;101159.63;;;18.28
62180;BMP280;48172;53.374;10.722;2022-11-20T02:23:19;101159.31;;;18.26
62180;BMP280;48172;53.374;10.722;2022-11-20T02:25:47;101161.56;;;18.28
62180;BMP280;48172;53.374;10.722;2022-11-20T02:28:14;101140.44;;;18.23
62180;BMP280;48172;53.374;10.722;2022-11-20T02:30:41;101153.53;;;18.24
62180;BMP280;48172;53.374;10.722;2022-11-20T02:33:07;101148.13;;;18.24
62180;BMP280;48172;53.374;10.722;2022-11-20T02:38:02;101151.34;;;18.19
62180;BMP280;48172;53.374;10.722;2022-11-20T02:40:29;101154.06;;;18.19
62180;BMP280;48172;53.374;10.722;2022-11-20T02:42:56;101147.88;;;18.19
62180;BMP280;48172;53.374;10.722;2022-11-20T02:45:23;101154.06;;;18.19
62180;BMP280;48172;53.374;10.722;2022-11-20T02:47:50;101147.53;;;18.17
62180;BMP280;48172;53.374;10.722;2022-11-20T02:50:17;101152.94;;;18.17
62180;BMP280;48172;53.374;10.722;2022-11-20T02:52:44;101149.91;;;18.15
62180;BMP280;48172;53.374;10.722;2022-11-20T02:55:11;101151.09;;;18.14
62180;BMP280;48172;53.374;10.722;2022-11-20T02:57:37;101138.34;;;18.14
62180;BMP280;48172;53.374;10.722;2022-11-20T03:00:04;101132.63;;;18.12
62180;BMP280;48172;53.374;10.722;2022-11-20T03:02:31;101127.22;;;18.12
62180;BMP280;48172;53.374;10.722;2022-11-20T03:04:57;101134.53;;;18.12
62180;BMP280;48172;53.374;10.722;2022-11-20T03:07:24;101132.25;;;18.10
62180;BMP280;48172;53.374;10.722;2022-11-20T03:09:51;101126.84;;;18.10
62180;BMP280;48172;53.374;10.722;2022-11-20T03:12:17;101129.22;;;18.08
62180;BMP280;48172;53.374;10.722;2022-11-20T03:14:44;101128.88;;;18.06
62180;BMP280;48172;53.374;10.722;2022-11-20T03:17:17;101120.44;;;18.04
62180;BMP280;48172;53.374;10.722;2022-11-20T03:19:44;101127.78;;;18.04
62180;BMP280;48172;53.374;10.722;2022-11-20T03:22:11;101128.97;;;18.02
62180;BMP280;48172;53.374;10.722;2022-11-20T03:24:37;101122.81;;;18.02
62180;BMP280;48172;53.374;10.722;2022-11-20T03:27:04;101131.34;;;18.00
62180;BMP280;48172;53.374;10.722;2022-11-20T03:29:30;101120.09;;;18.02
62180;BMP280;48172;53.374;10.722;2022-11-20T03:31:57;101117.50;;;17.98
62180;BMP280;48172;53.374;10.722;2022-11-20T03:34:23;101128.72;;;17.97
62180;BMP280;48172;53.374;10.722;2022-11-20T03:36:50;101126.03;;;17.97
62180;BMP280;48172;53.374;10.722;2022-11-20T03:39:16;101127.63;;;17.94
62180;BMP280;48172;53.374;10.722;2022-11-20T03:41:43;101131.09;;;17.95
62180;BMP280;48172;53.374;10.722;2022-11-20T03:44:11;101131.09;;;17.95
62180;BMP280;48172;53.374;10.722;2022-11-20T03:46:38;101123.41;;;17.93
62180;BMP280;48172;53.374;10.722;2022-11-20T03:49:05;101120.38;;;17.91
62180;BMP280;48172;53.374;10.722;2022-11-20T03:51:34;101118.41;;;17.92
62180;BMP280;48172;53.374;10.722;2022-11-20T03:54:04;101117.66;;;17.91
62180;BMP280;48172;53.374;10.722;2022-11-20T03:56:34;101121.53;;;17.90
62180;BMP280;48172;53.374;10.722;2022-11-20T03:59:01;101111.91;;;17.89
62180;BMP280;48172;53.374;10.722;2022-11-20T04:01:31;101113.84;;;17.89
62180;BMP280;48172;53.374;10.722;2022-11-20T04:03:58;101117.00;;;17.87
62180;BMP280;48172;53.374;10.722;2022-11-20T04:06:36;101103.91;;;17.86
62180;BMP280;48172;53.374;10.722;2022-11-20T04:09:04;101110.91;;;17.83
62180;BMP280;48172;53.374;10.722;2022-11-20T04:11:33;101104.75;;;17.83
62180;BMP280;48172;53.374;10.722;2022-11-20T04:14:02;101104.41;;;17.81
62180;BMP280;48172;53.374;10.722;2022-11-20T04:16:30;101097.41;;;17.83
62180;BMP280;48172;53.374;10.722;2022-11-20T04:18:59;101104.41;;;17.81
62180;BMP280;48172;53.374;10.722;2022-11-20T04:21:26;101100.19;;;17.80
62180;BMP280;48172;53.374;10.722;2022-11-20T04:23:54;101100.19;;;17.80
62180;BMP280;48172;53.374;10.722;2022-11-20T04:26:22;101090.53;;;17.79
62180;BMP280;48172;53.374;10.722;2022-11-20T04:28:49;101101.03;;;17.77
62180;BMP280;48172;53.374;10.722;2022-11-20T04:31:18;101107.19;;;17.77
62180;BMP280;48172;53.374;10.722;2022-11-20T04:33:45;101105.66;;;17.76
62180;BMP280;48172;53.374;10.722;2022-11-20T04:36:14;101100.34;;;17.73
62180;BMP280;48172;53.374;10.722;2022-11-20T04:38:42;101109.97;;;17.74
62180;BMP280;48172;53.374;10.722;2022-11-20T04:41:13;101094.94;;;17.73
62180;BMP280;48172;53.374;10.722;2022-11-20T04:43:40;101096.13;;;17.72
62180;BMP280;48172;53.374;10.722;2022-11-20T04:46:07;101097.31;;;17.71
62180;BMP280;48172;53.374;10.722;2022-11-20T04:48:34;101094.19;;;17.72
62180;BMP280;48172;53.374;10.722;2022-11-20T04:51:04;101088.13;;;17.68
62180;BMP280;48172;53.374;10.722;2022-11-20T04:53:31;101088.88;;;17.68
62180;BMP280;48172;53.374;10.722;2022-11-20T04:56:02;101090.06;;;17.67
62180;BMP280;48172;53.374;10.722;2022-11-20T04:58:29;101093.94;;;17.66
62180;BMP280;48172;53.374;10.722;2022-11-20T05:01:07;101090.13;;;17.64
62180;BMP280;48172;53.374;10.722;2022-11-20T05:03:35;101084.31;;;17.65
62180;BMP280;48172;53.374;10.722;2022-11-20T05:06:08;101084.72;;;17.64
62180;BMP280;48172;53.374;10.722;2022-11-20T05:08:35;101085.91;;;17.63
62180;BMP280;48172;53.374;10.722;2022-11-20T05:11:13;101076.28;;;17.62
62180;BMP280;48172;53.374;10.722;2022-11-20T05:13:40;101083.63;;;17.61
62180;BMP280;48172;53.374;10.722;2022-11-20T05:16:11;101079.38;;;17.60
62180;BMP280;48172;53.374;10.722;2022-11-20T05:18:38;101076.69;;;17.60
62180;BMP280;48172;53.374;10.722;2022-11-20T05:21:06;101076.78;;;17.57
62180;BMP280;48172;53.374;10.722;2022-11-20T05:23:33;101071.41;;;17.57
62180;BMP280;48172;53.374;10.722;2022-11-20T05:26:00;101076.03;;;17.56
62180;BMP280;48172;53.374;10.722;2022-11-20T05:28:28;101072.53;;;17.56
62180;BMP280;48172;53.374;10.722;2022-11-20T05:30:55;101071.78;;;17.55
62180;BMP280;48172;53.374;10.722;2022-11-20T05:33:22;101072.97;;;17.54
62180;BMP280;48172;53.374;10.722;2022-11-20T05:35:50;101068.78;;;17.53
62180;BMP280;48172;53.374;10.722;2022-11-20T05:38:16;101068.41;;;17.51
62180;BMP280;48172;53.374;10.722;2022-11-20T05:40:43;101059.91;;;17.53
62180;BMP280;48172;53.374;10.722;2022-11-20T05:43:09;101062.63;;;17.53
62180;BMP280;48172;53.374;10.722;2022-11-20T05:45:36;101060.69;;;17.53
62180;BMP280;48172;53.374;10.722;2022-11-20T05:48:02;101058.41;;;17.52
62180;BMP280;48172;53.374;10.722;2022-11-20T05:50:30;101044.22;;;17.48
62180;BMP280;48172;53.374;10.722;2022-11-20T05:52:59;101049.09;;;17.53
62180;BMP280;48172;53.374;10.722;2022-11-20T05:55:27;101044.09;;;17.51
62180;BMP280;48172;53.374;10.722;2022-11-20T05:57:54;101038.22;;;17.56
62180;BMP280;48172;53.374;10.722;2022-11-20T06:00:21;101030.75;;;17.60
62180;BMP280;48172;53.374;10.722;2022-11-20T06:02:48;101029.09;;;17.66
62180;BMP280;48172;53.374;10.722;2022-11-20T06:05:14;101034.31;;;17.74
62180;BMP280;48172;53.374;10.722;2022-11-20T06:07:41;101026.13;;;17.77
62180;BMP280;48172;53.374;10.722;2022-11-20T06:10:08;101031.34;;;17.84
62180;BMP280;48172;53.374;10.722;2022-11-20T06:12:34;101025.78;;;17.91
62180;BMP280;48172;53.374;10.722;2022-11-20T06:15:01;101029.03;;;17.99
62180;BMP280;48172;53.374;10.722;2022-11-20T06:17:27;101029.94;;;18.09
62180;BMP280;48172;53.374;10.722;2022-11-20T06:19:54;101032.38;;;18.19
62180;BMP280;48172;53.374;10.722;2022-11-20T06:22:20;101022.13;;;18.27
62180;BMP280;48172;53.374;10.722;2022-11-20T06:24:47;101028.09;;;18.34
62180;BMP280;48172;53.374;10.722;2022-11-20T06:27:14;101025.53;;;18.44
62180;BMP280;48172;53.374;10.722;2022-11-20T06:29:40;101034.19;;;18.51
62180;BMP280;48172;53.374;10.722;2022-11-20T06:32:07;101044.38;;;18.60
62180;BMP280;48172;53.374;10.722;2022-11-20T06:34:33;101041.47;;;18.67
62180;BMP280;48172;53.374;10.722;2022-11-20T06:36:59;101037.38;;;18.75
62180;BMP280;48172;53.374;10.722;2022-11-20T06:39:26;101037.16;;;18.82
62180;BMP280;48172;53.374;10.722;2022-11-20T06:41:52;101045.09;;;18.89
62180;BMP280;48172;53.374;10.722;2022-11-20T06:44:24;101038.69;;;18.96
62180;BMP280;48172;53.374;10.722;2022-11-20T06:46:50;101047.78;;;19.02
62180;BMP280;48172;53.374;10.722;2022-11-20T06:49:17;101040.66;;;19.08
62180;BMP280;48172;53.374;10.722;2022-11-20T06:51:43;101041.63;;;19.14
62180;BMP280;48172;53.374;10.722;2022-11-20T06:54:10;101036.84;;;19.18
62180;BMP280;48172;53.374;10.722;2022-11-20T06:56:36;101035.56;;;19.23
62180;BMP280;48172;53.374;10.722;2022-11-20T06:59:06;101029.59;;;19.28
62180;BMP280;48172;53.374;10.722;2022-11-20T07:01:33;101020.59;;;19.31
62180;BMP280;48172;53.374;10.722;2022-11-20T07:04:00;101025.47;;;19.36
62180;BMP280;48172;53.374;10.722;2022-11-20T07:06:26;101029.22;;;19.39
62180;BMP280;48172;53.374;10.722;2022-11-20T07:08:53;101027.16;;;19.43
62180;BMP280;48172;53.374;10.722;2022-11-20T07:11:19;101032.50;;;19.46
62180;BMP280;48172;53.374;10.722;2022-11-20T07:13:46;101030.09;;;19.48
62180;BMP280;48172;53.374;10.722;2022-11-20T07:16:13;101027.72;;;19.50
62180;BMP280;48172;53.374;10.722;2022-11-20T07:18:39;101025.31;;;19.52
62180;BMP280;48172;53.374;10.722;2022-11-20T07:21:11;101025.94;;;19.56
62180;BMP280;48172;53.374;10.722;2022-11-20T07:23:37;101027.13;;;19.55
62180;BMP280;48172;53.374;10.722;2022-11-20T07:26:09;101030.50;;;19.59
62180;BMP280;48172;53.374;10.722;2022-11-20T07:28:37;101035.06;;;19.62
62180;BMP280;48172;53.374;10.722;2022-11-20T07:31:04;101037.34;;;19.64
62180;BMP280;48172;53.374;10.722;2022-11-20T07:33:31;101033.41;;;19.65
62180;BMP280;48172;53.374;10.722;2022-11-20T07:36:01;101038.69;;;19.69
62180;BMP280;48172;53.374;10.722;2022-11-20T07:38:27;101034.78;;;19.70
62180;BMP280;48172;53.374;10.722;2022-11-20T07:40:55;101029.72;;;19.72
62180;BMP280;48172;53.374;10.722;2022-11-20T07:43:23;101034.25;;;19.75
62180;BMP280;48172;53.374;10.722;2022-11-20T07:45:50;101022.19;;;19.76
62180;BMP280;48172;53.374;10.722;2022-11-20T07:48:17;101027.94;;;19.78
62180;BMP280;48172;53.374;10.722;2022-11-20T07:50:43;101039.09;;;19.80
62180;BMP280;48172;53.374;10.722;2022-11-20T07:53:10;101041.41;;;19.81
62180;BMP280;48172;53.374;10.722;2022-11-20T07:55:36;101035.09;;;19.84
62180;BMP280;48172;53.374;10.722;2022-11-20T07:58:03;101034.66;;;19.86
62180;BMP280;48172;53.374;10.722;2022-11-20T08:00:29;101043.09;;;19.88
62180;BMP280;48172;53.374;10.722;2022-11-20T08:02:56;101034.09;;;19.91
62180;BMP280;48172;53.374;10.722;2022-11-20T08:05:22;101028.97;;;19.93
62180;BMP280;48172;53.374;10.722;2022-11-20T08:07:49;101032.00;;;19.95
62180;BMP280;48172;53.374;10.722;2022-11-20T08:10:16;101031.56;;;19.96
62180;BMP280;48172;53.374;10.722;2022-11-20T08:12:49;101038.06;;;19.99
62180;BMP280;48172;53.374;10.722;2022-11-20T08:15:36;101039.91;;;20.02
62180;BMP280;48172;53.374;10.722;2022-11-20T08:18:05;101039.16;;;20.02
62180;BMP280;48172;53.374;10.722;2022-11-20T08:20:52;101038.56;;;20.07
62180;BMP280;48172;53.374;10.722;2022-11-20T08:23:18;101040.53;;;20.06
62180;BMP280;48172;53.374;10.722;2022-11-20T08:25:49;101036.63;;;20.07
62180;BMP280;48172;53.374;10.722;2022-11-20T08:28:15;101037.69;;;20.10
62180;BMP280;48172;53.374;10.722;2022-11-20T08:30:47;101035.31;;;20.12
62180;BMP280;48172;53.374;10.722;2022-11-20T08:33:14;101040.25;;;20.13
62180;BMP280;48172;53.374;10.722;2022-11-20T08:35:40;101026.69;;;20.13
62180;BMP280;48172;53.374;10.722;2022-11-20T08:38:08;101023.56;;;20.15
62180;BMP280;48172;53.374;10.722;2022-11-20T08:40:35;101022.81;;;20.14
62180;BMP280;48172;53.374;10.722;2022-11-20T08:43:01;101019.34;;;20.14
62180;BMP280;48172;53.374;10.722;2022-11-20T08:45:28;101016.63;;;20.14
62180;BMP280;48172;53.374;10.722;2022-11-20T08:48:00;101022.06;;;20.14
62180;BMP280;48172;53.374;10.722;2022-11-20T08:50:27;101023.69;;;20.11
62180;BMP280;48172;53.374;10.722;2022-11-20T08:52:54;101013.69;;;20.08
62180;BMP280;48172;53.374;10.722;2022-11-20T08:55:21;101020.44;;;20.04
62180;BMP280;48172;53.374;10.722;2022-11-20T08:57:47;101015.94;;;20.01
62180;BMP280;48172;53.374;10.722;2022-11-20T09:00:16;101011.06;;;19.95
62180;BMP280;48172;53.374;10.722;2022-11-20T09:02:43;101020.09;;;19.92
62180;BMP280;48172;53.374;10.722;2022-11-20T09:05:09;101022.59;;;19.87
62180;BMP280;48172;53.374;10.722;2022-11-20T09:07:36;101015.03;;;19.82
62180;BMP280;48172;53.374;10.722;2022-11-20T09:10:03;101016.78;;;19.76
62180;BMP280;48172;53.374;10.722;2022-11-20T09:12:49;101017.78;;;19.69
62180;BMP280;48172;53.374;10.722;2022-11-20T09:15:18;101021.81;;;19.64
62180;BMP280;48172;53.374;10.722;2022-11-20T09:17:52;101023.88;;;19.60
62180;BMP280;48172;53.374;10.722;2022-11-20T09:20:19;101025.66;;;19.54
62180;BMP280;48172;53.374;10.722;2022-11-20T09:22:46;101021.97;;;19.48
62180;BMP280;48172;53.374;10.722;2022-11-20T09:25:12;101022.50;;;19.43
62180;BMP280;48172;53.374;10.722;2022-11-20T09:27:39;101024.59;;;19.39
62180;BMP280;48172;53.374;10.722;2022-11-20T09:30:08;101021.09;;;19.39
62180;BMP280;48172;53.374;10.722;2022-11-20T09:32:34;101019.19;;;19.39
62180;BMP280;48172;53.374;10.722;2022-11-20T09:35:02;101021.88;;;19.39
62180;BMP280;48172;53.374;10.722;2022-11-20T09:37:28;101022.50;;;19.43
62180;BMP280;48172;53.374;10.722;2022-11-20T09:39:55;101015.78;;;19.48
62180;BMP280;48172;53.374;10.722;2022-11-20T09:45:18;101020.13;;;19.58
62180;BMP280;48172;53.374;10.722;2022-11-20T09:50:58;101015.38;;;19.71
62180;BMP280;48172;53.374;10.722;2022-11-20T09:56:23;101012.75;;;19.80
62180;BMP280;48172;53.374;10.722;2022-11-20T09:58:52;101007.56;;;19.86
62180;BMP280;48172;53.374;10.722;2022-11-20T10:01:26;101010.88;;;19.90
62180;BMP280;48172;53.374;10.722;2022-11-20T10:04:03;101012.28;;;19.94
62180;BMP280;48172;53.374;10.722;2022-11-20T10:06:33;101009.44;;;19.98
62180;BMP280;48172;53.374;10.722;2022-11-20T10:09:18;101009.31;;;20.02
62180;BMP280;48172;53.374;10.722;2022-11-20T10:14:29;101016.41;;;20.08
62180;BMP280;48172;53.374;10.722;2022-11-20T10:31:01;100999.28;;;20.11
62180;BMP280;48172;53.374;10.722;2022-11-20T10:33:36;100995.06;;;20.10
62180;BMP280;48172;53.374;10.722;2022-11-20T10:36:28;100998.53;;;20.11
62180;BMP280;48172;53.374;10.722;2022-11-20T10:38:59;100986.16;;;20.10
62180;BMP280;48172;53.374;10.722;2022-11-20T10:41:32;100994.00;;;20.08
62180;BMP280;48172;53.374;10.722;2022-11-20T10:44:15;100999.41;;;20.08
62180;BMP280;48172;53.374;10.722;2022-11-20T10:47:04;100997.13;;;20.06
62180;BMP280;48172;53.374;10.722;2022-11-20T10:49:33;100995.94;;;20.07
62180;BMP280;48172;53.374;10.722;2022-11-20T10:57:51;100989.75;;;20.07
62180;BMP280;48172;53.374;10.722;2022-11-20T11:00:19;100997.91;;;20.07
62180;BMP280;48172;53.374;10.722;2022-11-20T11:02:53;100987.34;;;20.09
62180;BMP280;48172;53.374;10.722;2022-11-20T11:08:28;100992.00;;;20.08
62180;BMP280;48172;53.374;10.722;2022-11-20T11:11:00;100993.22;;;20.07
62180;BMP280;48172;53.374;10.722;2022-11-20T11:13:30;100991.28;;;20.08
62180;BMP280;48172;53.374;10.722;2022-11-20T11:15:57;100990.53;;;20.07
62180;BMP280;48172;53.374;10.722;2022-11-20T11:18:33;100988.13;;;20.09
62180;BMP280;48172;53.374;10.722;2022-11-20T11:21:04;100979.19;;;20.09
62180;BMP280;48172;53.374;10.722;2022-11-20T11:23:40;100979.66;;;20.07
62180;BMP280;48172;53.374;10.722;2022-11-20T11:26:28;100978.44;;;20.08
62180;BMP280;48172;53.374;10.722;2022-11-20T11:28:55;100978.44;;;20.08
62180;BMP280;48172;53.374;10.722;2022-11-20T11:31:42;100983.13;;;20.08
62180;BMP280;48172;53.374;10.722;2022-11-20T11:34:14;100978.03;;;20.10
62180;BMP280;48172;53.374;10.722;2022-11-20T11:36:41;100980.00;;;20.09
62180;BMP280;48172;53.374;10.722;2022-11-20T11:39:14;100978.03;;;20.10
62180;BMP280;48172;53.374;10.722;2022-11-20T11:41:42;100973.03;;;20.08
62180;BMP280;48172;53.374;10.722;2022-11-20T11:44:20;100969.44;;;20.11
62180;BMP280;48172;53.374;10.722;2022-11-20T11:49:45;100964.78;;;20.12
62180;BMP280;48172;53.374;10.722;2022-11-20T11:52:16;100962.81;;;20.12
62180;BMP280;48172;53.374;10.722;2022-11-20T11:54:58;100967.50;;;20.12
62180;BMP280;48172;53.374;10.722;2022-11-20T11:57:37;100968.56;;;20.14
62180;BMP280;48172;53.374;10.722;2022-11-20T12:05:53;100964.19;;;20.17
62180;BMP280;48172;53.374;10.722;2022-11-20T12:08:26;100962.56;;;20.19
62180;BMP280;48172;53.374;10.722;2022-11-20T12:13:56;100956.69;;;20.21
62180;BMP280;48172;53.374;10.722;2022-11-20T12:16:24;100954.28;;;20.23
62180;BMP280;48172;53.374;10.722;2022-11-20T12:18:52;100958.06;;;20.25
62180;BMP280;48172;53.374;10.722;2022-11-20T12:21:24;100961.09;;;20.27
62180;BMP280;48172;53.374;10.722;2022-11-20T12:47:15;100950.72;;;20.35
62180;BMP280;48172;53.374;10.722;2022-11-20T12:50:15;100951.16;;;20.34
62180;BMP280;48172;53.374;10.722;2022-11-20T12:52:52;100941.22;;;20.30
62180;BMP280;48172;53.374;10.722;2022-11-20T12:58:12;100941.78;;;20.25
62180;BMP280;48172;53.374;10.722;2022-11-20T13:01:15;100940.41;;;20.21
62180;BMP280;48172;53.374;10.722;2022-11-20T13:06:39;100956.19;;;20.13
62180;BMP280;48172;53.374;10.722;2022-11-20T13:09:15;100956.47;;;20.06
62180;BMP280;48172;53.374;10.722;2022-11-20T13:17:51;100950.78;;;19.91
62180;BMP280;48172;53.374;10.722;2022-11-20T13:20:19;100955.13;;;19.89
62180;BMP280;48172;53.374;10.722;2022-11-20T13:22:48;100945.50;;;19.88
62180;BMP280;48172;53.374;10.722;2022-11-20T13:25:32;100941.28;;;19.87
62180;BMP280;48172;53.374;10.722;2022-11-20T13:28:02;100937.34;;;19.88
62180;BMP280;48172;53.374;10.722;2022-11-20T13:30:30;100936.91;;;19.89
62180;BMP280;48172;53.374;10.722;2022-11-20T13:33:07;100933.75;;;19.91
62180;BMP280;48172;53.374;10.722;2022-11-20T13:35:41;100932.56;;;19.92
62180;BMP280;48172;53.374;10.722;2022-11-20T13:38:17;100925.50;;;19.94
62180;BMP280;48172;53.374;10.722;2022-11-20T13:40:55;100926.25;;;19.95
62180;BMP280;48172;53.374;10.722;2022-11-20T13:43:34;100932.75;;;19.97
62180;BMP280;48172;53.374;10.722;2022-11-20T13:46:04;100935.34;;;20.01
62180;BMP280;48172;53.374;10.722;2022-11-20T13:48:40;100935.22;;;20.05
62180;BMP280;48172;53.374;10.722;2022-11-20T14:02:20;100922.31;;;20.18
62180;BMP280;48172;53.374;10.722;2022-11-20T14:04:50;100913.41;;;20.17
62180;BMP280;48172;53.374;10.722;2022-11-20T14:07:25;100919.94;;;20.20
62180;BMP280;48172;53.374;10.722;2022-11-20T14:09:55;100909.38;;;20.22
62180;BMP280;48172;53.374;10.722;2022-11-20T14:12:27;100909.69;;;20.24
62180;BMP280;48172;53.374;10.722;2022-11-20T14:14:54;100903.34;;;20.27
62180;BMP280;48172;53.374;10.722;2022-11-20T14:17:22;100902.94;;;20.28
62180;BMP280;48172;53.374;10.722;2022-11-20T14:19:50;100904.44;;;20.29
62180;BMP280;48172;53.374;10.722;2022-11-20T14:24:48;100894.94;;;20.34
62180;BMP280;48172;53.374;10.722;2022-11-20T14:27:19;100894.50;;;20.36
62180;BMP280;48172;53.374;10.722;2022-11-20T14:29:49;100890.59;;;20.37
62180;BMP280;48172;53.374;10.722;2022-11-20T14:32:21;100892.09;;;20.38
62180;BMP280;48172;53.374;10.722;2022-11-20T14:34:50;100896.81;;;20.37
62180;BMP280;48172;53.374;10.722;2022-11-20T14:37:20;100897.84;;;20.40
62180;BMP280;48172;53.374;10.722;2022-11-20T14:39:53;100895.88;;;20.40
62180;BMP280;48172;53.374;10.722;2022-11-20T14:42:25;100900.09;;;20.41
62180;BMP280;48172;53.374;10.722;2022-11-20T14:44:55;100893.03;;;20.44
62180;BMP280;48172;53.374;10.722;2022-11-20T14:47:28;100887.16;;;20.45
62180;BMP280;48172;53.374;10.722;2022-11-20T14:49:57;100888.97;;;20.48
62180;BMP280;48172;53.374;10.722;2022-11-20T14:52:26;100887.03;;;20.49
62180;BMP280;48172;53.374;10.722;2022-11-20T14:54:56;100880.69;;;20.52
62180;BMP280;48172;53.374;10.722;2022-11-20T14:57:31;100882.97;;;20.53
62180;BMP280;48172;53.374;10.722;2022-11-20T15:02:42;100877.41;;;20.57
62180;BMP280;48172;53.374;10.722;2022-11-20T15:05:09;100880.13;;;20.57
62180;BMP280;48172;53.374;10.722;2022-11-20T15:07:39;100878.00;;;20.61
62180;BMP280;48172;53.374;10.722;2022-11-20T15:12:55;100878.00;;;20.61
62180;BMP280;48172;53.374;10.722;2022-11-20T15:15:33;100886.91;;;20.61
62180;BMP280;48172;53.374;10.722;2022-11-20T15:18:02;100881.50;;;20.61
62180;BMP280;48172;53.374;10.722;2022-11-20T15:20:31;100874.84;;;20.62
62180;BMP280;48172;53.374;10.722;2022-11-20T15:22:58;100871.38;;;20.62
62180;BMP280;48172;53.374;10.722;2022-11-20T15:25:25;100871.38;;;20.62
62180;BMP280;48172;53.374;10.722;2022-11-20T15:27:56;100873.63;;;20.63
62180;BMP280;48172;53.374;10.722;2022-11-20T15:30:23;100869.44;;;20.62
62180;BMP280;48172;53.374;10.722;2022-11-20T15:32:50;100862.03;;;20.63
62180;BMP280;48172;53.374;10.722;2022-11-20T15:35:16;100870.91;;;20.63
62180;BMP280;48172;53.374;10.722;2022-11-20T15:37:43;100867.47;;;20.63
62180;BMP280;48172;53.374;10.722;2022-11-20T15:40:10;100860.53;;;20.62
62180;BMP280;48172;53.374;10.722;2022-11-20T15:42:36;100863.25;;;20.62